Meteo

Meteo


Dettagli e Storico

Webcam

Webcam in aeroporto – Aggiornata ogni minuto
Osservatorio Meteorologico Cocomaro di Cona – Ferrara

NOAA IMAGE

NOAA

Windy

METAR

Aviation Digital Data Service (ADDS)

Output produced by METARs form (1858 UTC 10 May 2021)
found at http://www.aviationweather.gov/metar/data/
 
METAR text: LIPF 101755Z 25003KT CAVOK 20/12 Q1014 RMK BKN BKN200 VIS MIN 9999
Conditions at: LIPF (FERRARA (AUT) , IT) observed 1755 UTC 10 May 2021
Temperature: 20.0°C (68°F)
Dewpoint: 12.0°C (54°F) [RH = 60%]
Pressure (altimeter): 29.94 inches Hg (1014.0 mb)
Winds: from the WSW (250 degrees) at 3 MPH (3 knots; 1.5 m/s)
Visibility: 6 or more miles (10+ km)
Ceiling: ceiling and visibility are OK
Clouds: unknown
Weather: no significant weather observed at this time

METAR text: LIPE 101850Z 08008KT CAVOK 19/14 Q1013
Conditions at: LIPE (BOLOGNA/BORGO (A, IT) observed 1850 UTC 10 May 2021
Temperature: 19.0°C (66°F)
Dewpoint: 14.0°C (57°F) [RH = 73%]
Pressure (altimeter): 29.91 inches Hg (1013.0 mb)
Winds: from the E (80 degrees) at 9 MPH (8 knots; 4.1 m/s)
Visibility: 6 or more miles (10+ km)
Ceiling: ceiling and visibility are OK
Clouds: unknown
Weather: no significant weather observed at this time

Forecast for: LIPE (BOLOGNA/BORGO (A, IT)
Text: TAF LIPE 101700Z 1018/1118 10012KT 9999 FEW030
Forecast period: 1800 UTC 10 May 2021 to 0800 UTC 11 May 2021
Forecast type: FROM: standard forecast or significant change
Winds: from the E (100 degrees) at 14 MPH (12 knots; 6.2 m/s)
Visibility: 6 or more miles (10+ km)
Ceiling: at least 12,000 feet AGL
Clouds: few clouds at 3000 feet AGL
Weather: no significant weather forecast for this period
Text: BECMG 1108/1110 16010KT
Forecast period: 0800 to 1800 UTC 11 May 2021
Forecast type: BECOMING: Conditions expected to become as follows by 1000 UTC 11 May 2021
Winds: from the SSE (160 degrees) at 12 MPH (10 knots; 5.1 m/s)
Visibility: 6 or more miles (10+ km)
Ceiling: at least 12,000 feet AGL
Clouds: few clouds at 3000 feet AGL
Weather: no significant weather forecast for this period
Text: TEMPO 1113/1118 4000 SHRA
Forecast period: 1300 to 1800 UTC 11 May 2021
Forecast type: TEMPORARY: The following changes expected for less than half the time period
Visibility: 2.49 miles (4.01 km)
Ceiling: unknown
Clouds: missing
Weather: SHRA  (rain showers)

METAR text: LIPX 101850Z 09011KT 050V120 9999 FEW090 20/10 Q1014
Conditions at: LIPX (VILLAFRANCA(CV/M, IT) observed 1850 UTC 10 May 2021
Temperature: 20.0°C (68°F)
Dewpoint: 10.0°C (50°F) [RH = 53%]
Pressure (altimeter): 29.94 inches Hg (1014.0 mb)
Winds: from the E (90 degrees) at 13 MPH (11 knots; 5.7 m/s)
Visibility: 6 or more miles (10+ km)
Ceiling: at least 12,000 feet AGL
Clouds: few clouds at 9000 feet AGL
Weather: no significant weather observed at this time

Forecast for: LIPX (VILLAFRANCA(CV/M, IT)
Text: TAF LIPX 101700Z 1018/1103 09010KT 9999 FEW050
Forecast period: 1800 UTC 10 May 2021 to 0300 UTC 11 May 2021
Forecast type: FROM: standard forecast or significant change
Winds: from the E (90 degrees) at 12 MPH (10 knots; 5.1 m/s)
Visibility: 6 or more miles (10+ km)
Ceiling: at least 12,000 feet AGL
Clouds: few clouds at 5000 feet AGL
Weather: no significant weather forecast for this period
Text: TEMPO 1100/1103 RA
Forecast period: 0000 to 0300 UTC 11 May 2021
Forecast type: TEMPORARY: The following changes expected for less than half the time period
Visibility: missing
Ceiling: unknown
Clouds: missing
Weather: RA  (moderate rain)

METAR text: LIPZ 101850Z 11005KT CAVOK 17/12 Q1015 NOSIG
Conditions at: LIPZ (VENEZIA/TESSERA , IT) observed 1850 UTC 10 May 2021
Temperature: 17.0°C (63°F)
Dewpoint: 12.0°C (54°F) [RH = 72%]
Pressure (altimeter): 29.97 inches Hg (1015.0 mb)
Winds: from the ESE (110 degrees) at 6 MPH (5 knots; 2.6 m/s)
Visibility: 6 or more miles (10+ km)
Ceiling: ceiling and visibility are OK
Clouds: unknown
Weather: no significant weather observed at this time

Forecast for: LIPZ (VENEZIA/TESSERA , IT)
Text: TAF LIPZ 101700Z 1018/1124 13012KT CAVOK
Forecast period: 1800 UTC 10 May 2021 to 0000 UTC 12 May 2021
Forecast type: FROM: standard forecast or significant change
Winds: from the SE (130 degrees) at 14 MPH (12 knots; 6.2 m/s)
Visibility: 6 or more miles (10+ km)
Ceiling: unknown
Clouds: missing
Weather: NSW  (no significant weather)
Text: BECMG 1018/1020 05010KT
Forecast period: 1800 UTC 10 May 2021 to 0000 UTC 12 May 2021
Forecast type: BECOMING: Conditions expected to become as follows by 2000 UTC 10 May 2021
Winds: from the NE (50 degrees) at 12 MPH (10 knots; 5.1 m/s)
Visibility: 6 or more miles (10+ km)
Ceiling: unknown
Clouds: missing
Weather: NSW  (no significant weather)
Text: TEMPO 1110/1120 4000 RA BKN013
Forecast period: 1000 to 2000 UTC 11 May 2021
Forecast type: TEMPORARY: The following changes expected for less than half the time period
Visibility: 2.49 miles (4.01 km)
Ceiling: 1300 feet AGL
Clouds: broken clouds at 1300 feet AGL
Weather: RA  (moderate rain)
Text: TEMPO 1120/1124 3000 TSRA BKN010
Forecast period: 2000 UTC 11 May 2021 to 0000 UTC 12 May 2021
Forecast type: TEMPORARY: The following changes expected for less than half the time period
Visibility: 1.86 miles (2.99 km)
Ceiling: 1000 feet AGL
Clouds: broken clouds at 1000 feet AGL
Weather: TSRA  (rain associated with thunderstorm(s))